sensor_id;sensor_type;location;lat;lon;timestamp;temperature;humidity
46440;DHT22;32138;50.966;6.968;2023-04-05T00:00:50;7.20;63.10
46440;DHT22;32138;50.966;6.968;2023-04-05T00:01:51;7.20;62.70
46440;DHT22;32138;50.966;6.968;2023-04-05T00:02:54;7.10;63.10
46440;DHT22;32138;50.966;6.968;2023-04-05T00:03:58;7.10;63.70
46440;DHT22;32138;50.966;6.968;2023-04-05T00:04:59;7.10;64.40
46440;DHT22;32138;50.966;6.968;2023-04-05T00:06:02;7.20;63.70
46440;DHT22;32138;50.966;6.968;2023-04-05T00:07:04;7.00;63.80
46440;DHT22;32138;50.966;6.968;2023-04-05T00:08:07;6.80;64.60
46440;DHT22;32138;50.966;6.968;2023-04-05T00:09:19;6.80;65.00
46440;DHT22;32138;50.966;6.968;2023-04-05T00:10:20;6.90;64.80
46440;DHT22;32138;50.966;6.968;2023-04-05T00:11:21;6.90;65.40
46440;DHT22;32138;50.966;6.968;2023-04-05T00:12:22;7.20;64.40
46440;DHT22;32138;50.966;6.968;2023-04-05T00:13:23;7.10;64.20
46440;DHT22;32138;50.966;6.968;2023-04-05T00:14:24;7.00;64.80
46440;DHT22;32138;50.966;6.968;2023-04-05T00:15:29;7.00;64.80
46440;DHT22;32138;50.966;6.968;2023-04-05T00:16:32;6.80;64.90
46440;DHT22;32138;50.966;6.968;2023-04-05T00:17:32;6.60;65.20
46440;DHT22;32138;50.966;6.968;2023-04-05T00:18:34;6.50;65.80
46440;DHT22;32138;50.966;6.968;2023-04-05T00:19:37;6.50;66.00
46440;DHT22;32138;50.966;6.968;2023-04-05T00:20:38;6.60;65.60
46440;DHT22;32138;50.966;6.968;2023-04-05T00:21:39;6.60;65.60
46440;DHT22;32138;50.966;6.968;2023-04-05T00:22:40;6.60;65.70
46440;DHT22;32138;50.966;6.968;2023-04-05T00:23:43;6.70;65.70
46440;DHT22;32138;50.966;6.968;2023-04-05T00:24:44;7.00;65.10
46440;DHT22;32138;50.966;6.968;2023-04-05T00:25:45;6.80;65.20
46440;DHT22;32138;50.966;6.968;2023-04-05T00:26:46;6.80;65.50
46440;DHT22;32138;50.966;6.968;2023-04-05T00:27:47;6.60;65.50
46440;DHT22;32138;50.966;6.968;2023-04-05T00:28:48;6.50;65.90
46440;DHT22;32138;50.966;6.968;2023-04-05T00:29:49;6.50;65.90
46440;DHT22;32138;50.966;6.968;2023-04-05T00:30:51;6.80;65.60
46440;DHT22;32138;50.966;6.968;2023-04-05T00:31:52;7.00;65.20
46440;DHT22;32138;50.966;6.968;2023-04-05T00:32:53;7.00;64.80
46440;DHT22;32138;50.966;6.968;2023-04-05T00:33:53;6.80;65.30
46440;DHT22;32138;50.966;6.968;2023-04-05T00:34:54;6.80;65.30
46440;DHT22;32138;50.966;6.968;2023-04-05T00:35:55;6.70;65.80
46440;DHT22;32138;50.966;6.968;2023-04-05T00:36:56;6.60;66.00
46440;DHT22;32138;50.966;6.968;2023-04-05T00:37:56;6.70;66.80
46440;DHT22;32138;50.966;6.968;2023-04-05T00:38:57;6.50;67.10
46440;DHT22;32138;50.966;6.968;2023-04-05T00:39:58;6.70;67.20
46440;DHT22;32138;50.966;6.968;2023-04-05T00:40:59;7.00;66.70
46440;DHT22;32138;50.966;6.968;2023-04-05T00:42:02;7.20;66.30
46440;DHT22;32138;50.966;6.968;2023-04-05T00:43:03;7.10;65.70
46440;DHT22;32138;50.966;6.968;2023-04-05T00:44:05;7.10;66.10
46440;DHT22;32138;50.966;6.968;2023-04-05T00:45:07;7.00;66.40
46440;DHT22;32138;50.966;6.968;2023-04-05T00:46:08;6.90;66.80
46440;DHT22;32138;50.966;6.968;2023-04-05T00:47:09;6.80;67.90
46440;DHT22;32138;50.966;6.968;2023-04-05T00:48:10;7.00;66.70
46440;DHT22;32138;50.966;6.968;2023-04-05T00:49:11;7.10;66.20
46440;DHT22;32138;50.966;6.968;2023-04-05T00:50:12;7.00;66.80
46440;DHT22;32138;50.966;6.968;2023-04-05T00:51:13;6.90;66.40
46440;DHT22;32138;50.966;6.968;2023-04-05T00:52:14;6.90;67.00
46440;DHT22;32138;50.966;6.968;2023-04-05T00:53:19;6.70;67.40
46440;DHT22;32138;50.966;6.968;2023-04-05T00:54:21;6.80;67.60
46440;DHT22;32138;50.966;6.968;2023-04-05T00:55:22;6.70;68.60
46440;DHT22;32138;50.966;6.968;2023-04-05T00:56:23;7.00;67.60
46440;DHT22;32138;50.966;6.968;2023-04-05T00:57:24;7.10;67.10
46440;DHT22;32138;50.966;6.968;2023-04-05T00:58:25;7.10;66.60
46440;DHT22;32138;50.966;6.968;2023-04-05T00:59:27;7.10;66.70
46440;DHT22;32138;50.966;6.968;2023-04-05T01:00:30;7.00;67.00
46440;DHT22;32138;50.966;6.968;2023-04-05T01:01:32;7.00;67.50
46440;DHT22;32138;50.966;6.968;2023-04-05T01:02:54;7.20;67.40
46440;DHT22;32138;50.966;6.968;2023-04-05T01:04:02;7.20;66.90
46440;DHT22;32138;50.966;6.968;2023-04-05T01:06:42;7.20;66.60
46440;DHT22;32138;50.966;6.968;2023-04-05T01:07:56;7.00;67.30
46440;DHT22;32138;50.966;6.968;2023-04-05T01:10:16;7.20;67.50
46440;DHT22;32138;50.966;6.968;2023-04-05T01:11:22;7.00;67.80
46440;DHT22;32138;50.966;6.968;2023-04-05T01:12:31;6.80;68.00
46440;DHT22;32138;50.966;6.968;2023-04-05T01:13:32;6.80;68.10
46440;DHT22;32138;50.966;6.968;2023-04-05T01:14:44;6.90;67.90
46440;DHT22;32138;50.966;6.968;2023-04-05T01:15:49;6.80;68.20
46440;DHT22;32138;50.966;6.968;2023-04-05T01:16:50;6.90;67.90
46440;DHT22;32138;50.966;6.968;2023-04-05T01:17:57;6.80;68.10
46440;DHT22;32138;50.966;6.968;2023-04-05T01:19:01;6.90;68.30
46440;DHT22;32138;50.966;6.968;2023-04-05T01:20:06;6.90;68.50
46440;DHT22;32138;50.966;6.968;2023-04-05T01:24:15;6.80;68.50
46440;DHT22;32138;50.966;6.968;2023-04-05T01:26:55;6.80;69.00
46440;DHT22;32138;50.966;6.968;2023-04-05T01:30:03;6.90;68.50
46440;DHT22;32138;50.966;6.968;2023-04-05T01:34:55;6.80;69.10
46440;DHT22;32138;50.966;6.968;2023-04-05T01:37:15;6.60;70.00
46440;DHT22;32138;50.966;6.968;2023-04-05T01:38:21;6.60;69.90
46440;DHT22;32138;50.966;6.968;2023-04-05T01:39:25;6.60;69.80
46440;DHT22;32138;50.966;6.968;2023-04-05T01:40:27;6.80;68.70
46440;DHT22;32138;50.966;6.968;2023-04-05T01:41:31;6.80;68.10
46440;DHT22;32138;50.966;6.968;2023-04-05T01:42:32;6.80;68.80
46440;DHT22;32138;50.966;6.968;2023-04-05T01:43:33;6.80;68.30
46440;DHT22;32138;50.966;6.968;2023-04-05T01:44:33;6.80;69.10
46440;DHT22;32138;50.966;6.968;2023-04-05T01:45:34;6.90;68.90
46440;DHT22;32138;50.966;6.968;2023-04-05T01:46:35;7.00;69.00
46440;DHT22;32138;50.966;6.968;2023-04-05T01:47:36;6.90;69.70
46440;DHT22;32138;50.966;6.968;2023-04-05T01:48:36;6.70;69.60
46440;DHT22;32138;50.966;6.968;2023-04-05T01:49:37;6.70;70.00
46440;DHT22;32138;50.966;6.968;2023-04-05T01:50:38;6.90;69.70
46440;DHT22;32138;50.966;6.968;2023-04-05T01:51:39;7.00;69.20
46440;DHT22;32138;50.966;6.968;2023-04-05T01:52:41;7.00;69.30
46440;DHT22;32138;50.966;6.968;2023-04-05T01:53:42;6.90;68.10
46440;DHT22;32138;50.966;6.968;2023-04-05T01:54:42;6.70;65.90
46440;DHT22;32138;50.966;6.968;2023-04-05T01:55:43;6.60;65.60
46440;DHT22;32138;50.966;6.968;2023-04-05T01:56:44;6.70;66.20
46440;DHT22;32138;50.966;6.968;2023-04-05T01:57:45;6.80;66.40
46440;DHT22;32138;50.966;6.968;2023-04-05T01:58:46;6.80;65.20
46440;DHT22;32138;50.966;6.968;2023-04-05T01:59:46;6.80;65.00
46440;DHT22;32138;50.966;6.968;2023-04-05T02:00:47;6.80;65.10
46440;DHT22;32138;50.966;6.968;2023-04-05T02:01:48;7.00;64.90
46440;DHT22;32138;50.966;6.968;2023-04-05T02:02:50;6.70;64.70
46440;DHT22;32138;50.966;6.968;2023-04-05T02:03:51;6.70;65.00
46440;DHT22;32138;50.966;6.968;2023-04-05T02:04:51;6.60;64.90
46440;DHT22;32138;50.966;6.968;2023-04-05T02:05:52;6.40;64.90
46440;DHT22;32138;50.966;6.968;2023-04-05T02:06:53;6.40;65.30
46440;DHT22;32138;50.966;6.968;2023-04-05T02:07:54;6.50;65.40
46440;DHT22;32138;50.966;6.968;2023-04-05T02:08:54;6.60;65.40
46440;DHT22;32138;50.966;6.968;2023-04-05T02:09:55;6.60;65.20
46440;DHT22;32138;50.966;6.968;2023-04-05T02:10:56;6.50;65.10
46440;DHT22;32138;50.966;6.968;2023-04-05T02:11:56;6.30;65.20
46440;DHT22;32138;50.966;6.968;2023-04-05T02:12:57;6.20;65.60
46440;DHT22;32138;50.966;6.968;2023-04-05T02:13:58;6.40;65.30
46440;DHT22;32138;50.966;6.968;2023-04-05T02:14:59;6.50;65.30
46440;DHT22;32138;50.966;6.968;2023-04-05T02:16:00;6.50;65.50
46440;DHT22;32138;50.966;6.968;2023-04-05T02:17:00;6.50;65.80
46440;DHT22;32138;50.966;6.968;2023-04-05T02:18:02;6.50;65.70
46440;DHT22;32138;50.966;6.968;2023-04-05T02:19:03;6.40;65.20
46440;DHT22;32138;50.966;6.968;2023-04-05T02:20:07;6.40;65.60
46440;DHT22;32138;50.966;6.968;2023-04-05T02:21:08;6.40;65.30
46440;DHT22;32138;50.966;6.968;2023-04-05T02:22:10;6.10;66.00
46440;DHT22;32138;50.966;6.968;2023-04-05T02:23:10;6.10;66.00
46440;DHT22;32138;50.966;6.968;2023-04-05T02:24:11;6.10;66.20
46440;DHT22;32138;50.966;6.968;2023-04-05T02:25:12;6.20;66.10
46440;DHT22;32138;50.966;6.968;2023-04-05T02:26:13;6.40;65.70
46440;DHT22;32138;50.966;6.968;2023-04-05T02:27:13;6.30;65.80
46440;DHT22;32138;50.966;6.968;2023-04-05T02:28:14;6.40;65.90
46440;DHT22;32138;50.966;6.968;2023-04-05T02:29:15;6.40;65.50
46440;DHT22;32138;50.966;6.968;2023-04-05T02:30:16;6.40;65.50
46440;DHT22;32138;50.966;6.968;2023-04-05T02:31:16;6.30;65.60
46440;DHT22;32138;50.966;6.968;2023-04-05T02:32:17;6.30;66.00
46440;DHT22;32138;50.966;6.968;2023-04-05T02:33:18;6.30;65.70
46440;DHT22;32138;50.966;6.968;2023-04-05T02:34:19;6.20;66.10
46440;DHT22;32138;50.966;6.968;2023-04-05T02:35:22;6.30;66.80
46440;DHT22;32138;50.966;6.968;2023-04-05T02:36:22;6.30;66.80
46440;DHT22;32138;50.966;6.968;2023-04-05T02:37:23;6.30;66.20
46440;DHT22;32138;50.966;6.968;2023-04-05T02:38:25;6.50;66.20
46440;DHT22;32138;50.966;6.968;2023-04-05T02:39:26;6.60;66.00
46440;DHT22;32138;50.966;6.968;2023-04-05T02:40:28;6.70;65.80
46440;DHT22;32138;50.966;6.968;2023-04-05T02:41:29;6.60;64.60
46440;DHT22;32138;50.966;6.968;2023-04-05T02:42:29;6.50;65.20
46440;DHT22;32138;50.966;6.968;2023-04-05T02:43:30;6.60;65.30
46440;DHT22;32138;50.966;6.968;2023-04-05T02:44:33;6.60;65.40
46440;DHT22;32138;50.966;6.968;2023-04-05T02:45:34;6.40;65.30
46440;DHT22;32138;50.966;6.968;2023-04-05T02:46:35;6.30;65.60
46440;DHT22;32138;50.966;6.968;2023-04-05T02:47:35;6.40;66.10
46440;DHT22;32138;50.966;6.968;2023-04-05T02:48:37;6.60;66.00
46440;DHT22;32138;50.966;6.968;2023-04-05T02:49:37;6.50;66.30
46440;DHT22;32138;50.966;6.968;2023-04-05T02:50:38;6.70;66.60
46440;DHT22;32138;50.966;6.968;2023-04-05T02:51:39;6.70;66.70
46440;DHT22;32138;50.966;6.968;2023-04-05T02:52:40;6.50;66.30
46440;DHT22;32138;50.966;6.968;2023-04-05T02:53:40;6.70;66.40
46440;DHT22;32138;50.966;6.968;2023-04-05T02:54:42;6.60;65.40
46440;DHT22;32138;50.966;6.968;2023-04-05T02:55:56;6.30;65.50
46440;DHT22;32138;50.966;6.968;2023-04-05T02:56:59;6.30;65.60
46440;DHT22;32138;50.966;6.968;2023-04-05T02:58:01;6.10;66.30
46440;DHT22;32138;50.966;6.968;2023-04-05T02:59:02;6.20;66.70
46440;DHT22;32138;50.966;6.968;2023-04-05T03:00:04;6.20;66.60
46440;DHT22;32138;50.966;6.968;2023-04-05T03:01:07;6.10;66.90
46440;DHT22;32138;50.966;6.968;2023-04-05T03:02:09;6.00;67.00
46440;DHT22;32138;50.966;6.968;2023-04-05T03:03:10;6.00;66.80
46440;DHT22;32138;50.966;6.968;2023-04-05T03:04:11;6.00;67.70
46440;DHT22;32138;50.966;6.968;2023-04-05T03:05:11;6.00;67.30
46440;DHT22;32138;50.966;6.968;2023-04-05T03:06:13;6.00;67.40
46440;DHT22;32138;50.966;6.968;2023-04-05T03:07:14;5.90;68.00
46440;DHT22;32138;50.966;6.968;2023-04-05T03:08:17;5.90;67.60
46440;DHT22;32138;50.966;6.968;2023-04-05T03:09:18;5.90;67.60
46440;DHT22;32138;50.966;6.968;2023-04-05T03:10:20;5.80;67.70
46440;DHT22;32138;50.966;6.968;2023-04-05T03:11:28;5.70;68.00
46440;DHT22;32138;50.966;6.968;2023-04-05T03:12:28;5.90;68.00
46440;DHT22;32138;50.966;6.968;2023-04-05T03:13:29;5.90;67.50
46440;DHT22;32138;50.966;6.968;2023-04-05T03:14:30;5.70;67.90
46440;DHT22;32138;50.966;6.968;2023-04-05T03:15:32;5.70;68.50
46440;DHT22;32138;50.966;6.968;2023-04-05T03:16:32;5.80;68.40
46440;DHT22;32138;50.966;6.968;2023-04-05T03:17:33;5.90;68.50
46440;DHT22;32138;50.966;6.968;2023-04-05T03:18:34;6.10;66.80
46440;DHT22;32138;50.966;6.968;2023-04-05T03:19:35;6.10;67.10
46440;DHT22;32138;50.966;6.968;2023-04-05T03:20:36;6.10;67.70
46440;DHT22;32138;50.966;6.968;2023-04-05T03:21:40;5.90;67.40
46440;DHT22;32138;50.966;6.968;2023-04-05T03:22:41;6.00;67.60
46440;DHT22;32138;50.966;6.968;2023-04-05T03:23:42;6.10;67.70
46440;DHT22;32138;50.966;6.968;2023-04-05T03:24:45;6.20;67.70
46440;DHT22;32138;50.966;6.968;2023-04-05T03:25:47;6.10;67.20
46440;DHT22;32138;50.966;6.968;2023-04-05T03:26:48;6.10;67.60
46440;DHT22;32138;50.966;6.968;2023-04-05T03:27:48;6.00;68.10
46440;DHT22;32138;50.966;6.968;2023-04-05T03:28:52;6.00;68.00
46440;DHT22;32138;50.966;6.968;2023-04-05T03:29:52;6.10;67.70
46440;DHT22;32138;50.966;6.968;2023-04-05T03:30:53;6.10;67.90
46440;DHT22;32138;50.966;6.968;2023-04-05T03:31:56;6.10;67.30
46440;DHT22;32138;50.966;6.968;2023-04-05T03:32:58;6.10;67.40
46440;DHT22;32138;50.966;6.968;2023-04-05T03:34:00;6.00;67.20
46440;DHT22;32138;50.966;6.968;2023-04-05T03:35:01;5.80;67.90
46440;DHT22;32138;50.966;6.968;2023-04-05T03:36:04;5.70;68.00
46440;DHT22;32138;50.966;6.968;2023-04-05T03:37:05;5.70;68.30
46440;DHT22;32138;50.966;6.968;2023-04-05T03:38:06;5.80;68.10
46440;DHT22;32138;50.966;6.968;2023-04-05T03:39:07;5.90;68.30
46440;DHT22;32138;50.966;6.968;2023-04-05T03:40:10;5.80;69.10
46440;DHT22;32138;50.966;6.968;2023-04-05T03:41:12;5.80;68.40
46440;DHT22;32138;50.966;6.968;2023-04-05T03:42:13;5.70;68.70
46440;DHT22;32138;50.966;6.968;2023-04-05T03:43:15;5.60;69.10
46440;DHT22;32138;50.966;6.968;2023-04-05T03:44:16;5.80;69.20
46440;DHT22;32138;50.966;6.968;2023-04-05T03:45:17;6.00;68.50
46440;DHT22;32138;50.966;6.968;2023-04-05T03:46:18;6.00;68.30
46440;DHT22;32138;50.966;6.968;2023-04-05T03:47:19;6.00;68.50
46440;DHT22;32138;50.966;6.968;2023-04-05T03:48:20;6.00;68.40
46440;DHT22;32138;50.966;6.968;2023-04-05T03:49:21;6.00;68.40
46440;DHT22;32138;50.966;6.968;2023-04-05T03:50:22;5.90;68.80
46440;DHT22;32138;50.966;6.968;2023-04-05T03:51:23;5.90;68.70
46440;DHT22;32138;50.966;6.968;2023-04-05T03:52:23;5.90;68.80
46440;DHT22;32138;50.966;6.968;2023-04-05T03:53:24;6.00;68.70
46440;DHT22;32138;50.966;6.968;2023-04-05T03:54:25;6.00;68.30
46440;DHT22;32138;50.966;6.968;2023-04-05T03:55:26;6.00;68.40
46440;DHT22;32138;50.966;6.968;2023-04-05T03:56:27;5.90;68.30
46440;DHT22;32138;50.966;6.968;2023-04-05T03:57:28;5.90;68.80
46440;DHT22;32138;50.966;6.968;2023-04-05T03:58:29;6.00;68.80
46440;DHT22;32138;50.966;6.968;2023-04-05T03:59:30;5.90;69.20
46440;DHT22;32138;50.966;6.968;2023-04-05T04:00:31;6.00;69.20
46440;DHT22;32138;50.966;6.968;2023-04-05T04:01:31;5.90;68.70
46440;DHT22;32138;50.966;6.968;2023-04-05T04:02:32;6.10;68.50
46440;DHT22;32138;50.966;6.968;2023-04-05T04:03:33;6.00;68.40
46440;DHT22;32138;50.966;6.968;2023-04-05T04:04:36;5.80;69.20
46440;DHT22;32138;50.966;6.968;2023-04-05T04:05:37;5.90;69.20
46440;DHT22;32138;50.966;6.968;2023-04-05T04:06:38;5.60;69.00
46440;DHT22;32138;50.966;6.968;2023-04-05T04:07:39;5.70;69.80
46440;DHT22;32138;50.966;6.968;2023-04-05T04:08:41;5.50;70.00
46440;DHT22;32138;50.966;6.968;2023-04-05T04:09:41;5.50;70.10
46440;DHT22;32138;50.966;6.968;2023-04-05T04:10:42;5.50;70.30
46440;DHT22;32138;50.966;6.968;2023-04-05T04:11:43;5.70;70.00
46440;DHT22;32138;50.966;6.968;2023-04-05T04:12:44;5.70;69.90
46440;DHT22;32138;50.966;6.968;2023-04-05T04:13:45;5.50;70.00
46440;DHT22;32138;50.966;6.968;2023-04-05T04:14:46;5.40;70.40
46440;DHT22;32138;50.966;6.968;2023-04-05T04:15:46;5.40;70.80
46440;DHT22;32138;50.966;6.968;2023-04-05T04:16:47;5.40;70.30
46440;DHT22;32138;50.966;6.968;2023-04-05T04:17:48;5.50;70.40
46440;DHT22;32138;50.966;6.968;2023-04-05T04:18:49;5.50;70.40
46440;DHT22;32138;50.966;6.968;2023-04-05T04:19:53;5.30;70.40
46440;DHT22;32138;50.966;6.968;2023-04-05T04:20:54;5.10;71.20
46440;DHT22;32138;50.966;6.968;2023-04-05T04:21:55;5.30;71.00
46440;DHT22;32138;50.966;6.968;2023-04-05T04:22:58;5.40;70.60
46440;DHT22;32138;50.966;6.968;2023-04-05T04:23:59;5.60;70.50
46440;DHT22;32138;50.966;6.968;2023-04-05T04:25:00;5.50;70.40
46440;DHT22;32138;50.966;6.968;2023-04-05T04:26:04;5.30;70.30
46440;DHT22;32138;50.966;6.968;2023-04-05T04:27:05;5.30;71.10
46440;DHT22;32138;50.966;6.968;2023-04-05T04:28:06;5.30;71.40
46440;DHT22;32138;50.966;6.968;2023-04-05T04:29:07;5.60;70.90
46440;DHT22;32138;50.966;6.968;2023-04-05T04:30:14;5.50;70.70
46440;DHT22;32138;50.966;6.968;2023-04-05T04:31:15;5.60;70.50
46440;DHT22;32138;50.966;6.968;2023-04-05T04:32:16;5.50;70.80
46440;DHT22;32138;50.966;6.968;2023-04-05T04:33:25;5.60;70.70
46440;DHT22;32138;50.966;6.968;2023-04-05T04:34:26;5.20;70.90
46440;DHT22;32138;50.966;6.968;2023-04-05T04:35:31;5.10;71.90
46440;DHT22;32138;50.966;6.968;2023-04-05T04:36:34;5.30;72.00
46440;DHT22;32138;50.966;6.968;2023-04-05T04:37:36;5.50;71.70
46440;DHT22;32138;50.966;6.968;2023-04-05T04:38:37;5.60;71.30
46440;DHT22;32138;50.966;6.968;2023-04-05T04:39:43;5.70;70.70
46440;DHT22;32138;50.966;6.968;2023-04-05T04:40:45;5.60;69.90
46440;DHT22;32138;50.966;6.968;2023-04-05T04:41:46;5.00;70.50
46440;DHT22;32138;50.966;6.968;2023-04-05T04:42:47;4.70;71.80
46440;DHT22;32138;50.966;6.968;2023-04-05T04:43:48;5.00;72.40
46440;DHT22;32138;50.966;6.968;2023-04-05T04:44:49;5.30;71.70
46440;DHT22;32138;50.966;6.968;2023-04-05T04:45:50;5.10;71.30
46440;DHT22;32138;50.966;6.968;2023-04-05T04:46:53;4.90;71.30
46440;DHT22;32138;50.966;6.968;2023-04-05T04:47:54;5.00;71.70
46440;DHT22;32138;50.966;6.968;2023-04-05T04:48:55;4.90;71.60
46440;DHT22;32138;50.966;6.968;2023-04-05T04:49:56;5.10;71.70
46440;DHT22;32138;50.966;6.968;2023-04-05T04:50:58;5.20;71.50
46440;DHT22;32138;50.966;6.968;2023-04-05T04:52:01;5.40;71.30
46440;DHT22;32138;50.966;6.968;2023-04-05T04:53:02;5.30;71.00
46440;DHT22;32138;50.966;6.968;2023-04-05T04:54:04;5.30;71.20
46440;DHT22;32138;50.966;6.968;2023-04-05T04:55:08;5.20;70.90
46440;DHT22;32138;50.966;6.968;2023-04-05T04:56:13;5.20;71.00
46440;DHT22;32138;50.966;6.968;2023-04-05T04:57:13;5.30;71.50
46440;DHT22;32138;50.966;6.968;2023-04-05T04:58:14;5.50;71.10
46440;DHT22;32138;50.966;6.968;2023-04-05T04:59:16;5.40;71.00
46440;DHT22;32138;50.966;6.968;2023-04-05T05:00:17;5.40;71.20
46440;DHT22;32138;50.966;6.968;2023-04-05T05:01:18;5.40;71.10
46440;DHT22;32138;50.966;6.968;2023-04-05T05:02:25;5.30;71.40
46440;DHT22;32138;50.966;6.968;2023-04-05T05:03:26;5.50;71.70
46440;DHT22;32138;50.966;6.968;2023-04-05T05:04:28;5.20;70.80
46440;DHT22;32138;50.966;6.968;2023-04-05T05:05:28;5.10;71.30
46440;DHT22;32138;50.966;6.968;2023-04-05T05:06:29;5.20;71.70
46440;DHT22;32138;50.966;6.968;2023-04-05T05:07:30;5.10;72.70
46440;DHT22;32138;50.966;6.968;2023-04-05T05:08:31;5.40;71.90
46440;DHT22;32138;50.966;6.968;2023-04-05T05:09:32;5.40;70.30
46440;DHT22;32138;50.966;6.968;2023-04-05T05:10:33;5.20;70.00
46440;DHT22;32138;50.966;6.968;2023-04-05T05:11:33;5.20;70.70
46440;DHT22;32138;50.966;6.968;2023-04-05T05:12:34;4.90;70.30
46440;DHT22;32138;50.966;6.968;2023-04-05T05:13:35;5.00;71.00
46440;DHT22;32138;50.966;6.968;2023-04-05T05:14:36;5.00;71.50
46440;DHT22;32138;50.966;6.968;2023-04-05T05:15:39;4.90;70.50
46440;DHT22;32138;50.966;6.968;2023-04-05T05:16:41;4.90;70.50
46440;DHT22;32138;50.966;6.968;2023-04-05T05:17:42;4.80;70.30
46440;DHT22;32138;50.966;6.968;2023-04-05T05:18:44;4.90;70.60
46440;DHT22;32138;50.966;6.968;2023-04-05T05:19:47;4.90;70.20
46440;DHT22;32138;50.966;6.968;2023-04-05T05:20:50;4.70;70.70
46440;DHT22;32138;50.966;6.968;2023-04-05T05:21:52;4.70;71.60
46440;DHT22;32138;50.966;6.968;2023-04-05T05:22:53;4.70;71.70
46440;DHT22;32138;50.966;6.968;2023-04-05T05:23:54;5.10;71.00
46440;DHT22;32138;50.966;6.968;2023-04-05T05:24:55;5.30;70.40
46440;DHT22;32138;50.966;6.968;2023-04-05T05:25:59;5.10;70.20
46440;DHT22;32138;50.966;6.968;2023-04-05T05:27:00;4.90;70.20
46440;DHT22;32138;50.966;6.968;2023-04-05T05:28:00;4.80;70.80
46440;DHT22;32138;50.966;6.968;2023-04-05T05:29:01;4.80;71.00
46440;DHT22;32138;50.966;6.968;2023-04-05T05:30:04;4.80;71.20
46440;DHT22;32138;50.966;6.968;2023-04-05T05:31:05;5.00;71.20
46440;DHT22;32138;50.966;6.968;2023-04-05T05:32:07;5.00;70.60
46440;DHT22;32138;50.966;6.968;2023-04-05T05:33:08;4.90;71.20
46440;DHT22;32138;50.966;6.968;2023-04-05T05:34:09;4.90;71.10
46440;DHT22;32138;50.966;6.968;2023-04-05T05:35:10;4.80;71.30
46440;DHT22;32138;50.966;6.968;2023-04-05T05:36:11;4.90;71.20
46440;DHT22;32138;50.966;6.968;2023-04-05T05:37:12;4.80;71.30
46440;DHT22;32138;50.966;6.968;2023-04-05T05:38:13;4.80;72.10
46440;DHT22;32138;50.966;6.968;2023-04-05T05:39:14;4.90;71.60
46440;DHT22;32138;50.966;6.968;2023-04-05T05:40:15;4.70;71.70
46440;DHT22;32138;50.966;6.968;2023-04-05T05:41:16;4.70;71.80
46440;DHT22;32138;50.966;6.968;2023-04-05T05:42:16;4.70;72.40
46440;DHT22;32138;50.966;6.968;2023-04-05T05:43:18;4.60;71.80
46440;DHT22;32138;50.966;6.968;2023-04-05T05:44:20;4.50;73.10
46440;DHT22;32138;50.966;6.968;2023-04-05T05:45:20;4.40;73.30
46440;DHT22;32138;50.966;6.968;2023-04-05T05:46:21;4.50;73.70
46440;DHT22;32138;50.966;6.968;2023-04-05T05:47:22;4.60;72.80
46440;DHT22;32138;50.966;6.968;2023-04-05T05:48:22;4.70;72.50
46440;DHT22;32138;50.966;6.968;2023-04-05T05:49:24;4.70;72.80
46440;DHT22;32138;50.966;6.968;2023-04-05T05:50:24;4.60;72.50
46440;DHT22;32138;50.966;6.968;2023-04-05T05:51:25;4.80;72.30
46440;DHT22;32138;50.966;6.968;2023-04-05T05:52:26;5.10;71.90
46440;DHT22;32138;50.966;6.968;2023-04-05T05:53:27;5.10;71.70
46440;DHT22;32138;50.966;6.968;2023-04-05T05:54:27;4.80;71.50
46440;DHT22;32138;50.966;6.968;2023-04-05T05:55:28;4.70;71.70
46440;DHT22;32138;50.966;6.968;2023-04-05T05:56:30;4.80;71.90
46440;DHT22;32138;50.966;6.968;2023-04-05T05:57:30;4.90;71.70
46440;DHT22;32138;50.966;6.968;2023-04-05T05:58:31;4.70;71.70
46440;DHT22;32138;50.966;6.968;2023-04-05T05:59:32;4.70;72.10
46440;DHT22;32138;50.966;6.968;2023-04-05T06:00:33;4.70;72.00
46440;DHT22;32138;50.966;6.968;2023-04-05T06:01:33;4.70;72.10
46440;DHT22;32138;50.966;6.968;2023-04-05T06:02:37;5.00;71.90
46440;DHT22;32138;50.966;6.968;2023-04-05T06:03:38;4.90;71.10
46440;DHT22;32138;50.966;6.968;2023-04-05T06:04:39;4.80;71.30
46440;DHT22;32138;50.966;6.968;2023-04-05T06:05:40;4.80;71.40
46440;DHT22;32138;50.966;6.968;2023-04-05T06:06:40;4.80;71.80
46440;DHT22;32138;50.966;6.968;2023-04-05T06:07:45;4.80;71.20
46440;DHT22;32138;50.966;6.968;2023-04-05T06:08:46;4.70;71.70
46440;DHT22;32138;50.966;6.968;2023-04-05T06:09:47;4.90;71.40
46440;DHT22;32138;50.966;6.968;2023-04-05T06:10:49;5.00;71.20
46440;DHT22;32138;50.966;6.968;2023-04-05T06:11:51;4.90;70.60
46440;DHT22;32138;50.966;6.968;2023-04-05T06:12:52;5.10;70.60
46440;DHT22;32138;50.966;6.968;2023-04-05T06:13:53;5.00;70.10
46440;DHT22;32138;50.966;6.968;2023-04-05T06:14:54;5.00;70.40
46440;DHT22;32138;50.966;6.968;2023-04-05T06:15:55;5.30;70.10
46440;DHT22;32138;50.966;6.968;2023-04-05T06:16:56;5.30;69.80
46440;DHT22;32138;50.966;6.968;2023-04-05T06:17:56;5.20;69.60
46440;DHT22;32138;50.966;6.968;2023-04-05T06:18:57;5.10;69.90
46440;DHT22;32138;50.966;6.968;2023-04-05T06:19:58;5.10;70.20
46440;DHT22;32138;50.966;6.968;2023-04-05T06:20:59;5.20;70.20
46440;DHT22;32138;50.966;6.968;2023-04-05T06:22:00;5.10;70.20
46440;DHT22;32138;50.966;6.968;2023-04-05T06:23:00;5.10;69.90
46440;DHT22;32138;50.966;6.968;2023-04-05T06:24:01;5.10;70.20
46440;DHT22;32138;50.966;6.968;2023-04-05T06:25:02;4.80;70.20
46440;DHT22;32138;50.966;6.968;2023-04-05T06:26:03;4.70;70.40
46440;DHT22;32138;50.966;6.968;2023-04-05T06:27:03;4.70;70.60
46440;DHT22;32138;50.966;6.968;2023-04-05T06:28:05;4.70;70.80
46440;DHT22;32138;50.966;6.968;2023-04-05T06:29:06;4.70;71.10
46440;DHT22;32138;50.966;6.968;2023-04-05T06:30:07;4.70;70.90
46440;DHT22;32138;50.966;6.968;2023-04-05T06:31:08;4.60;70.90
46440;DHT22;32138;50.966;6.968;2023-04-05T06:32:09;4.60;70.90
46440;DHT22;32138;50.966;6.968;2023-04-05T06:33:10;4.80;70.70
46440;DHT22;32138;50.966;6.968;2023-04-05T06:34:10;4.70;70.60
46440;DHT22;32138;50.966;6.968;2023-04-05T06:35:11;4.90;70.70
46440;DHT22;32138;50.966;6.968;2023-04-05T06:36:12;4.90;70.00
46440;DHT22;32138;50.966;6.968;2023-04-05T06:37:13;5.00;70.30
46440;DHT22;32138;50.966;6.968;2023-04-05T06:38:13;4.90;70.20
46440;DHT22;32138;50.966;6.968;2023-04-05T06:39:14;4.80;69.90
46440;DHT22;32138;50.966;6.968;2023-04-05T06:40:15;5.00;70.00
46440;DHT22;32138;50.966;6.968;2023-04-05T06:41:16;5.00;70.10
46440;DHT22;32138;50.966;6.968;2023-04-05T06:42:17;5.10;69.90
46440;DHT22;32138;50.966;6.968;2023-04-05T06:43:18;5.10;69.40
46440;DHT22;32138;50.966;6.968;2023-04-05T06:44:19;5.00;69.30
46440;DHT22;32138;50.966;6.968;2023-04-05T06:45:19;5.10;69.40
46440;DHT22;32138;50.966;6.968;2023-04-05T06:46:20;5.10;69.40
46440;DHT22;32138;50.966;6.968;2023-04-05T06:47:21;5.00;69.90
46440;DHT22;32138;50.966;6.968;2023-04-05T06:48:22;4.90;69.90
46440;DHT22;32138;50.966;6.968;2023-04-05T06:49:23;4.90;70.00
46440;DHT22;32138;50.966;6.968;2023-04-05T06:50:24;5.20;70.10